createdAt,value
2022-12-11T00:01:18.102Z,11.43
2022-12-11T00:03:46.607Z,11.60
2022-12-11T00:06:18.085Z,12.97
2022-12-11T00:08:47.473Z,10.30
2022-12-11T00:11:17.939Z,11.83
2022-12-11T00:13:47.730Z,15.67
2022-12-11T00:16:16.261Z,11.57
2022-12-11T00:18:44.659Z,11.53
2022-12-11T00:21:15.924Z,12.23
2022-12-11T00:23:44.350Z,12.40
2022-12-11T00:26:16.548Z,12.03
2022-12-11T00:28:46.124Z,12.27
2022-12-11T00:31:17.986Z,13.43
2022-12-11T00:33:48.990Z,11.90
2022-12-11T00:36:20.561Z,13.20
2022-12-11T00:38:52.048Z,13.87
2022-12-11T00:41:22.064Z,12.30
2022-12-11T00:43:50.146Z,13.40
2022-12-11T00:46:18.309Z,14.40
2022-12-11T00:48:48.711Z,15.80
2022-12-11T00:51:16.883Z,13.80
2022-12-11T00:53:45.000Z,14.83
2022-12-11T00:56:15.727Z,15.73
2022-12-11T00:58:45.640Z,15.27
2022-12-11T01:01:16.680Z,18.07
2022-12-11T01:03:45.606Z,14.27
2022-12-11T01:06:16.568Z,14.77
2022-12-11T01:08:45.899Z,14.70
2022-12-11T01:11:15.325Z,13.33
2022-12-11T01:13:46.264Z,13.07
2022-12-11T01:16:16.891Z,14.53
2022-12-11T01:18:45.157Z,13.13
2022-12-11T01:21:14.578Z,12.80
2022-12-11T01:23:42.665Z,13.03
2022-12-11T01:26:15.011Z,13.80
2022-12-11T01:28:45.285Z,12.60
2022-12-11T01:31:16.437Z,14.73
2022-12-11T01:33:44.559Z,15.67
2022-12-11T01:36:16.285Z,13.97
2022-12-11T01:38:44.358Z,14.70
2022-12-11T01:41:12.889Z,15.50
2022-12-11T01:44:02.557Z,15.70
2022-12-11T01:46:32.276Z,13.63
2022-12-11T01:49:02.270Z,14.40
2022-12-11T01:51:32.753Z,14.87
2022-12-11T01:54:06.697Z,12.90
2022-12-11T01:56:40.199Z,12.70
2022-12-11T01:59:11.295Z,14.83
2022-12-11T02:01:45.796Z,14.50
2022-12-11T02:04:15.561Z,13.90
2022-12-11T02:06:46.694Z,15.73
2022-12-11T02:09:17.794Z,13.87
2022-12-11T02:11:57.829Z,14.67
2022-12-11T02:14:36.308Z,12.10
2022-12-11T02:17:10.427Z,13.00
2022-12-11T02:20:00.918Z,12.10
2022-12-11T02:22:53.921Z,13.97
2022-12-11T02:25:28.730Z,12.53
2022-12-11T02:28:19.610Z,14.20
2022-12-11T02:30:56.521Z,15.03
2022-12-11T02:33:30.633Z,12.57
2022-12-11T02:35:59.178Z,12.90
2022-12-11T02:38:33.612Z,14.13
2022-12-11T02:41:02.495Z,13.60
2022-12-11T02:43:33.547Z,14.30
2022-12-11T02:46:04.482Z,14.30
2022-12-11T02:48:34.989Z,15.43
2022-12-11T02:51:05.548Z,13.00
2022-12-11T02:53:36.917Z,15.03
2022-12-11T02:56:12.297Z,14.77
2022-12-11T02:58:52.604Z,12.23
2022-12-11T03:01:23.475Z,16.97
2022-12-11T03:03:51.504Z,13.53
2022-12-11T03:06:23.525Z,12.40
2022-12-11T03:08:52.121Z,12.83
2022-12-11T03:11:20.115Z,13.50
2022-12-11T03:13:51.437Z,14.10
2022-12-11T03:16:31.662Z,13.83
2022-12-11T03:19:16.632Z,14.17
2022-12-11T03:21:53.311Z,14.90
2022-12-11T03:24:27.471Z,13.90
2022-12-11T03:27:03.558Z,13.73
2022-12-11T03:29:40.533Z,11.83
2022-12-11T03:32:16.754Z,14.33
2022-12-11T03:34:48.170Z,12.30
2022-12-11T03:37:17.590Z,13.90
2022-12-11T03:39:50.023Z,14.20
2022-12-11T03:42:20.188Z,13.43
2022-12-11T03:44:51.854Z,14.53
2022-12-11T03:47:23.987Z,15.03
2022-12-11T03:49:54.509Z,13.03
2022-12-11T03:52:24.143Z,17.77
2022-12-11T03:54:52.525Z,14.23
2022-12-11T03:57:27.093Z,14.50
2022-12-11T03:59:56.691Z,13.17
2022-12-11T04:02:24.770Z,14.53
2022-12-11T04:04:52.773Z,13.43
2022-12-11T04:07:23.276Z,14.80
2022-12-11T04:09:51.259Z,13.77
2022-12-11T04:12:19.244Z,14.07
2022-12-11T04:15:01.821Z,15.90
2022-12-11T04:17:49.486Z,15.20
2022-12-11T04:20:36.515Z,13.50
2022-12-11T04:23:23.096Z,13.80
2022-12-11T04:25:51.406Z,13.00
2022-12-11T04:28:19.404Z,14.13
2022-12-11T04:30:50.266Z,15.40
2022-12-11T04:33:19.663Z,14.93
2022-12-11T04:35:47.705Z,15.50
2022-12-11T04:38:15.733Z,14.53
2022-12-11T04:40:43.752Z,12.57
2022-12-11T04:43:11.760Z,12.50
2022-12-11T04:45:39.804Z,14.77
2022-12-11T04:48:08.516Z,13.47
2022-12-11T04:50:37.824Z,13.70
2022-12-11T04:53:05.759Z,14.93
2022-12-11T04:55:33.759Z,13.80
2022-12-11T04:58:01.724Z,13.23
2022-12-11T05:00:29.668Z,14.33
2022-12-11T05:02:57.701Z,14.70
2022-12-11T05:05:25.745Z,13.37
2022-12-11T05:07:55.136Z,13.40
2022-12-11T05:10:23.115Z,14.23
2022-12-11T05:12:51.093Z,14.33
2022-12-11T05:15:19.261Z,13.93
2022-12-11T05:17:47.213Z,12.27
2022-12-11T05:20:15.174Z,13.33
2022-12-11T05:22:43.158Z,14.53
2022-12-11T05:25:12.715Z,13.73
2022-12-11T05:27:40.966Z,14.47
2022-12-11T05:30:11.077Z,16.47
2022-12-11T05:32:39.110Z,14.60
2022-12-11T05:35:08.309Z,15.10
2022-12-11T05:37:36.506Z,16.37
2022-12-11T05:40:07.203Z,16.57
2022-12-11T05:42:36.588Z,14.10
2022-12-11T05:45:05.266Z,15.23
2022-12-11T05:47:33.233Z,13.67
2022-12-11T05:50:01.368Z,14.20
2022-12-11T05:52:29.383Z,14.47
2022-12-11T05:54:57.387Z,15.47
2022-12-11T05:57:25.375Z,15.20
2022-12-11T05:59:54.887Z,14.13
2022-12-11T06:02:23.022Z,14.47
2022-12-11T06:04:51.033Z,15.97
2022-12-11T06:07:18.996Z,13.17
2022-12-11T06:09:47.004Z,14.50
2022-12-11T06:12:14.980Z,13.80
2022-12-11T06:14:43.261Z,12.13
2022-12-11T06:17:12.615Z,14.70
2022-12-11T06:19:40.844Z,13.87
2022-12-11T06:22:08.840Z,15.60
2022-12-11T06:24:36.847Z,14.40
2022-12-11T06:27:05.037Z,14.10
2022-12-11T06:29:33.118Z,14.53
2022-12-11T06:32:03.639Z,15.60
2022-12-11T06:34:33.031Z,14.10
2022-12-11T06:37:01.096Z,14.70
2022-12-11T06:39:28.996Z,15.90
2022-12-11T06:41:56.985Z,14.50
2022-12-11T06:44:25.018Z,15.13
2022-12-11T06:46:52.976Z,14.13
2022-12-11T06:49:21.058Z,14.97
2022-12-11T06:51:50.537Z,15.00
2022-12-11T06:54:18.555Z,15.13
2022-12-11T06:56:47.814Z,15.60
2022-12-11T06:59:15.807Z,14.67
2022-12-11T07:01:43.788Z,15.90
2022-12-11T07:04:11.786Z,14.53
2022-12-11T07:06:39.830Z,15.97
2022-12-11T07:09:09.829Z,18.10
2022-12-11T07:11:37.788Z,16.47
2022-12-11T07:14:05.834Z,15.27
2022-12-11T07:16:33.866Z,15.90
2022-12-11T07:19:02.096Z,15.50
2022-12-11T07:21:30.057Z,14.30
2022-12-11T07:23:58.079Z,13.27
2022-12-11T07:26:27.529Z,13.50
2022-12-11T07:28:58.242Z,15.97
2022-12-11T07:31:29.422Z,17.30
2022-12-11T07:34:00.294Z,13.10
2022-12-11T07:36:29.487Z,13.80
2022-12-11T07:38:57.907Z,14.70
2022-12-11T07:41:28.248Z,16.10
2022-12-11T07:43:56.260Z,14.03
2022-12-11T07:46:26.952Z,14.67
2022-12-11T07:48:55.541Z,14.53
2022-12-11T07:51:27.998Z,15.97
2022-12-11T07:53:58.609Z,15.80
2022-12-11T07:56:29.911Z,15.40
2022-12-11T07:59:00.494Z,14.77
2022-12-11T08:01:31.113Z,16.00
2022-12-11T08:03:59.586Z,16.33
2022-12-11T08:06:30.892Z,15.57
2022-12-11T08:09:01.333Z,17.30
2022-12-11T08:11:31.052Z,16.47
2022-12-11T08:14:00.517Z,15.43
2022-12-11T08:16:28.952Z,16.17
2022-12-11T08:18:57.125Z,16.70
2022-12-11T08:21:27.579Z,17.90
2022-12-11T08:23:56.674Z,15.23
2022-12-11T08:26:26.802Z,15.00
2022-12-11T08:28:57.205Z,15.93
2022-12-11T08:31:25.797Z,18.50
2022-12-11T08:33:55.926Z,18.20
2022-12-11T08:36:25.030Z,18.53
2022-12-11T08:38:55.549Z,16.30
2022-12-11T08:41:26.169Z,16.87
2022-12-11T08:43:56.043Z,18.10
2022-12-11T08:46:27.605Z,16.13
2022-12-11T08:48:57.786Z,16.43
2022-12-11T08:51:28.301Z,19.53
2022-12-11T08:53:57.439Z,16.27
2022-12-11T08:56:26.051Z,17.33
2022-12-11T08:58:55.769Z,18.60
2022-12-11T09:01:25.983Z,18.37
2022-12-11T09:03:56.425Z,18.30
2022-12-11T09:06:28.191Z,18.33
2022-12-11T09:08:57.275Z,17.30
2022-12-11T09:11:28.392Z,16.03
2022-12-11T09:14:03.570Z,17.40
2022-12-11T09:16:39.608Z,16.87
2022-12-11T09:19:08.952Z,16.53
2022-12-11T09:21:37.012Z,17.67
2022-12-11T09:24:05.967Z,15.13
2022-12-11T09:26:34.110Z,18.10
2022-12-11T09:29:05.695Z,15.27
2022-12-11T09:31:37.235Z,17.20
2022-12-11T09:34:08.240Z,17.70
2022-12-11T09:36:36.979Z,16.00
2022-12-11T09:39:07.682Z,16.50
2022-12-11T09:41:40.436Z,17.00
2022-12-11T09:44:22.963Z,15.30
2022-12-11T09:46:52.313Z,17.57
2022-12-11T09:49:30.039Z,16.30
2022-12-11T09:52:13.004Z,17.40
2022-12-11T09:54:50.431Z,15.87
2022-12-11T09:57:33.674Z,18.53
2022-12-11T10:00:20.327Z,16.07
2022-12-11T10:03:19.025Z,15.70
2022-12-11T10:05:51.799Z,16.37
2022-12-11T10:08:30.561Z,18.20
2022-12-11T10:11:09.843Z,16.43
2022-12-11T10:13:49.620Z,17.63
2022-12-11T10:16:34.323Z,18.03
2022-12-11T10:19:03.534Z,18.30
2022-12-11T10:21:40.352Z,15.83
2022-12-11T10:24:41.857Z,16.17
2022-12-11T10:27:16.581Z,16.13
2022-12-11T10:29:44.638Z,16.80
2022-12-11T10:32:24.357Z,17.00
2022-12-11T10:35:00.518Z,17.87
2022-12-11T10:37:28.755Z,14.97
2022-12-11T10:39:56.760Z,16.70
2022-12-11T10:42:27.790Z,17.40
2022-12-11T10:45:01.746Z,14.40
2022-12-11T10:47:33.326Z,14.60
2022-12-11T10:50:03.426Z,18.13
2022-12-11T10:52:34.923Z,17.67
2022-12-11T10:55:05.975Z,16.90
2022-12-11T10:57:37.154Z,15.63
2022-12-11T11:00:09.628Z,18.07
2022-12-11T11:02:40.594Z,17.37
2022-12-11T11:05:17.251Z,17.73
2022-12-11T11:07:45.382Z,17.90
2022-12-11T11:10:18.923Z,17.17
2022-12-11T11:12:49.516Z,14.53
2022-12-11T11:15:23.264Z,18.50
2022-12-11T11:17:56.135Z,15.80
2022-12-11T11:20:27.847Z,20.03
2022-12-11T11:22:59.429Z,18.40
2022-12-11T11:25:30.014Z,14.30
2022-12-11T11:28:01.445Z,15.70
2022-12-11T11:30:33.105Z,14.30
2022-12-11T11:33:07.439Z,16.20
2022-12-11T11:35:40.160Z,15.83
2022-12-11T11:38:20.903Z,17.20
2022-12-11T11:41:00.743Z,17.27
2022-12-11T11:43:41.168Z,15.63
2022-12-11T11:46:16.150Z,17.20
2022-12-11T11:49:01.627Z,16.73
2022-12-11T11:51:36.172Z,16.63
2022-12-11T11:54:19.756Z,16.73
2022-12-11T11:56:47.972Z,17.83
2022-12-11T11:59:24.548Z,18.40
2022-12-11T12:01:58.369Z,18.87
2022-12-11T12:04:33.167Z,16.60
2022-12-11T12:07:25.567Z,14.60
2022-12-11T12:10:00.285Z,15.20
2022-12-11T12:12:41.092Z,16.90
2022-12-11T12:15:30.536Z,18.50
2022-12-11T12:18:05.523Z,18.00
2022-12-11T12:20:44.878Z,16.13
2022-12-11T12:23:37.139Z,16.40
2022-12-11T12:26:13.401Z,18.40
2022-12-11T12:28:53.802Z,17.80
2022-12-11T12:31:40.806Z,19.33
2022-12-11T12:34:21.652Z,17.63
2022-12-11T12:37:02.288Z,16.73
2022-12-11T12:39:49.897Z,17.03
2022-12-11T12:42:28.219Z,15.47
2022-12-11T12:45:02.506Z,16.23
2022-12-11T12:47:34.833Z,18.10
2022-12-11T12:50:05.537Z,16.67
2022-12-11T12:52:37.856Z,18.10
2022-12-11T12:55:22.926Z,15.53
2022-12-11T12:57:54.475Z,16.60
2022-12-11T13:00:35.580Z,17.07
2022-12-11T13:03:14.669Z,17.23
2022-12-11T13:05:46.304Z,16.97
2022-12-11T13:08:26.431Z,17.83
2022-12-11T13:11:03.451Z,17.60
2022-12-11T13:13:37.892Z,16.43
2022-12-11T13:16:26.208Z,18.13
2022-12-11T13:18:54.792Z,17.97
2022-12-11T13:21:34.106Z,17.13
2022-12-11T13:24:28.833Z,18.23
2022-12-11T13:26:57.326Z,18.10
2022-12-11T13:29:35.677Z,19.07
2022-12-11T13:32:21.548Z,17.50
2022-12-11T13:34:55.237Z,19.53
2022-12-11T13:37:28.265Z,20.43
2022-12-11T13:39:58.215Z,20.37
2022-12-11T13:42:31.008Z,19.10
2022-12-11T13:45:02.994Z,17.97
2022-12-11T13:47:34.292Z,18.30
2022-12-11T13:50:16.142Z,19.20
2022-12-11T13:52:54.941Z,21.20
2022-12-11T13:55:27.389Z,17.70
2022-12-11T13:57:55.403Z,17.53
2022-12-11T14:00:26.522Z,19.10
2022-12-11T14:02:57.678Z,18.37
2022-12-11T14:05:26.196Z,20.43
2022-12-11T14:07:57.689Z,20.67
2022-12-11T14:10:29.173Z,18.50
2022-12-11T14:13:02.010Z,15.63
2022-12-11T14:15:32.622Z,18.60
2022-12-11T14:18:02.181Z,18.90
2022-12-11T14:20:33.904Z,19.07
2022-12-11T14:23:20.344Z,18.47
2022-12-11T14:25:56.418Z,16.40
2022-12-11T14:28:27.643Z,15.57
2022-12-11T14:30:59.072Z,15.43
2022-12-11T14:33:32.218Z,18.50
2022-12-11T14:36:03.910Z,16.37
2022-12-11T14:38:36.763Z,16.60
2022-12-11T14:41:13.867Z,18.33
2022-12-11T14:43:46.731Z,19.80
2022-12-11T14:46:21.601Z,15.37
2022-12-11T14:49:00.454Z,17.57
2022-12-11T14:51:31.768Z,15.80
2022-12-11T14:54:00.158Z,15.10
2022-12-11T14:56:31.058Z,17.70
2022-12-11T14:59:01.975Z,16.57
2022-12-11T15:01:33.596Z,14.13
2022-12-11T15:04:08.177Z,15.00
2022-12-11T15:06:45.682Z,14.77
2022-12-11T15:09:21.648Z,17.57
2022-12-11T15:11:53.760Z,15.60
2022-12-11T15:14:23.932Z,15.70
2022-12-11T15:16:55.776Z,15.10
2022-12-11T15:19:28.158Z,16.97
2022-12-11T15:21:57.569Z,14.90
2022-12-11T15:24:33.992Z,16.50
2022-12-11T15:27:03.495Z,14.60
2022-12-11T15:29:38.874Z,13.37
2022-12-11T15:32:21.751Z,15.00
2022-12-11T15:34:54.403Z,14.33
2022-12-11T15:37:24.883Z,15.83
2022-12-11T15:39:54.532Z,15.10
2022-12-11T15:42:28.312Z,13.97
2022-12-11T15:44:57.266Z,15.13
2022-12-11T15:47:29.017Z,15.60
2022-12-11T15:50:00.812Z,13.33
2022-12-11T15:52:29.183Z,14.07
2022-12-11T15:54:57.201Z,15.23
2022-12-11T15:57:26.644Z,14.90
2022-12-11T15:59:56.049Z,18.67
2022-12-11T16:02:26.546Z,17.87
2022-12-11T16:04:56.471Z,21.10
2022-12-11T16:07:26.901Z,14.43
2022-12-11T16:09:54.919Z,14.27
2022-12-11T16:12:22.905Z,26.63
2022-12-11T16:14:52.394Z,18.33
2022-12-11T16:17:20.474Z,14.87
2022-12-11T16:19:48.445Z,17.40
2022-12-11T16:22:16.910Z,29.27
2022-12-11T16:24:44.896Z,20.47
2022-12-11T16:27:13.018Z,19.60
2022-12-11T16:29:42.861Z,15.20
2022-12-11T16:32:12.286Z,14.10
2022-12-11T16:34:40.507Z,16.10
2022-12-11T16:37:10.307Z,17.10
2022-12-11T16:39:40.006Z,14.47
2022-12-11T16:42:08.267Z,14.57
2022-12-11T16:44:40.929Z,16.17
2022-12-11T16:47:13.268Z,16.80
2022-12-11T16:49:42.176Z,15.50
2022-12-11T16:52:10.599Z,15.90
2022-12-11T16:54:38.819Z,16.17
2022-12-11T16:57:06.812Z,15.83
2022-12-11T16:59:37.376Z,14.93
2022-12-11T17:02:06.382Z,16.97
2022-12-11T17:04:40.594Z,18.90
2022-12-11T17:07:08.542Z,18.67
2022-12-11T17:09:37.140Z,15.53
2022-12-11T17:12:06.366Z,15.57
2022-12-11T17:14:37.476Z,14.60
2022-12-11T17:17:06.696Z,13.53
2022-12-11T17:19:38.017Z,16.60
2022-12-11T17:22:06.150Z,15.80
2022-12-11T17:24:34.144Z,14.33
2022-12-11T17:27:02.495Z,13.60
2022-12-11T17:29:30.648Z,16.07
2022-12-11T17:31:59.707Z,16.70
2022-12-11T17:34:30.745Z,15.13
2022-12-11T17:37:02.709Z,17.23
2022-12-11T17:39:31.229Z,13.93
2022-12-11T17:41:59.208Z,13.17
2022-12-11T17:44:30.294Z,14.20
2022-12-11T17:46:58.657Z,15.00
2022-12-11T17:49:27.769Z,14.50
2022-12-11T17:51:55.844Z,14.97
2022-12-11T17:54:25.773Z,13.87
2022-12-11T17:56:54.025Z,11.70
2022-12-11T17:59:22.415Z,12.40
2022-12-11T18:01:51.442Z,14.97
2022-12-11T18:04:21.200Z,15.20
2022-12-11T18:06:49.592Z,13.93
2022-12-11T18:09:17.868Z,13.17
2022-12-11T18:11:47.384Z,13.07
2022-12-11T18:14:17.402Z,13.13
2022-12-11T18:16:46.183Z,14.30
2022-12-11T18:19:15.651Z,12.67
2022-12-11T18:21:45.752Z,13.40
2022-12-11T18:24:14.765Z,14.97
2022-12-11T18:26:43.890Z,14.40
2022-12-11T18:29:13.344Z,14.70
2022-12-11T18:31:43.393Z,14.60
2022-12-11T18:34:11.955Z,16.20
2022-12-11T18:36:41.814Z,13.90
2022-12-11T18:39:09.924Z,14.63
2022-12-11T18:41:38.684Z,15.87
2022-12-11T18:44:10.128Z,13.80
2022-12-11T18:46:40.271Z,14.27
2022-12-11T18:49:08.352Z,13.87
2022-12-11T18:51:36.372Z,13.90
2022-12-11T18:54:04.777Z,14.10
2022-12-11T18:56:32.836Z,14.83
2022-12-11T18:59:00.858Z,13.70
2022-12-11T19:01:30.276Z,14.27
2022-12-11T19:04:10.462Z,15.00
2022-12-11T19:06:39.181Z,13.90
2022-12-11T19:09:08.970Z,14.53
2022-12-11T19:11:40.196Z,13.50
2022-12-11T19:14:10.390Z,14.67
2022-12-11T19:16:41.993Z,12.80
2022-12-11T19:19:18.054Z,13.50
2022-12-11T19:21:47.209Z,12.73
2022-12-11T19:24:20.953Z,14.10
2022-12-11T19:26:49.054Z,14.70
2022-12-11T19:29:22.293Z,14.60
2022-12-11T19:31:50.772Z,13.70
2022-12-11T19:34:20.767Z,14.60
2022-12-11T19:36:48.831Z,14.80
2022-12-11T19:39:18.040Z,15.47
2022-12-11T19:41:46.354Z,12.93
2022-12-11T19:44:15.029Z,13.57
2022-12-11T19:46:43.142Z,13.73
2022-12-11T19:49:13.132Z,13.20
2022-12-11T19:51:45.959Z,14.73
2022-12-11T19:54:17.618Z,15.43
2022-12-11T19:56:47.938Z,13.60
2022-12-11T19:59:17.907Z,16.47
2022-12-11T20:01:47.897Z,13.27
2022-12-11T20:04:20.419Z,13.80
2022-12-11T20:06:50.203Z,13.50
2022-12-11T20:09:18.905Z,15.00
2022-12-11T20:11:47.626Z,15.30
2022-12-11T20:14:21.629Z,14.60
2022-12-11T20:19:38.613Z,14.20
2022-12-11T20:22:09.196Z,13.47
2022-12-11T20:24:37.274Z,13.80
2022-12-11T20:27:06.337Z,15.57
2022-12-11T20:29:38.859Z,14.90
2022-12-11T20:32:07.246Z,14.60
2022-12-11T20:34:35.401Z,15.20
2022-12-11T20:37:10.536Z,14.63
2022-12-11T20:39:38.580Z,15.00
2022-12-11T20:42:06.779Z,14.90
2022-12-11T20:44:34.831Z,16.20
2022-12-11T20:47:05.875Z,14.03
2022-12-11T20:49:33.930Z,14.77
2022-12-11T20:52:01.922Z,15.73
2022-12-11T20:54:31.386Z,13.70
2022-12-11T20:56:59.376Z,13.50
2022-12-11T20:59:27.419Z,12.00
2022-12-11T21:01:55.805Z,14.80
2022-12-11T21:04:24.097Z,14.73
2022-12-11T21:06:56.171Z,15.50
2022-12-11T21:09:27.692Z,14.27
2022-12-11T21:11:58.337Z,14.43
2022-12-11T21:14:26.470Z,14.27
2022-12-11T21:16:54.616Z,14.70
2022-12-11T21:19:23.821Z,13.77
2022-12-11T21:21:52.470Z,13.53
2022-12-11T21:24:27.505Z,13.90
2022-12-11T21:26:58.974Z,13.67
2022-12-11T21:29:29.914Z,14.60
2022-12-11T21:31:58.293Z,14.77
2022-12-11T21:34:26.463Z,14.20
2022-12-11T21:36:59.563Z,15.33
2022-12-11T21:39:29.233Z,16.50
2022-12-11T21:42:00.422Z,14.93
2022-12-11T21:47:17.292Z,13.07
2022-12-11T21:49:45.351Z,14.07
2022-12-11T21:52:13.880Z,13.30
2022-12-11T21:54:42.527Z,14.17
2022-12-11T21:57:11.893Z,14.47
2022-12-11T21:59:39.890Z,12.73
2022-12-11T22:02:08.183Z,13.57
2022-12-11T22:04:36.929Z,15.30
2022-12-11T22:07:04.976Z,16.17
2022-12-11T22:09:34.928Z,15.20
2022-12-11T22:12:02.932Z,14.00
2022-12-11T22:14:32.276Z,15.53
2022-12-11T22:17:00.706Z,14.17
2022-12-11T22:19:32.473Z,13.27
2022-12-11T22:22:00.949Z,13.13
2022-12-11T22:24:28.953Z,13.30
2022-12-11T22:26:56.949Z,12.20
2022-12-11T22:29:24.961Z,12.87
2022-12-11T22:31:54.915Z,14.03
2022-12-11T22:34:23.447Z,13.13
2022-12-11T22:36:52.281Z,12.10
2022-12-11T22:39:20.257Z,12.93
2022-12-11T22:41:48.209Z,13.33
2022-12-11T22:44:18.463Z,13.03
2022-12-11T22:46:49.889Z,14.20
2022-12-11T22:49:20.211Z,13.13
2022-12-11T22:51:48.837Z,13.63
2022-12-11T22:54:17.242Z,12.90
2022-12-11T22:56:45.283Z,15.30
2022-12-11T22:59:13.366Z,12.83
2022-12-11T23:01:41.443Z,13.17
2022-12-11T23:04:09.461Z,12.70
2022-12-11T23:06:38.786Z,12.47
2022-12-11T23:09:07.156Z,13.33
2022-12-11T23:11:38.298Z,15.57
2022-12-11T23:14:08.144Z,13.80
2022-12-11T23:16:36.527Z,13.70
2022-12-11T23:19:05.789Z,13.10
2022-12-11T23:21:34.307Z,14.17
2022-12-11T23:24:04.771Z,13.87
2022-12-11T23:26:33.351Z,13.33
2022-12-11T23:29:02.461Z,14.53
2022-12-11T23:31:34.511Z,16.40
2022-12-11T23:34:02.793Z,13.93
2022-12-11T23:36:31.453Z,13.87
2022-12-11T23:38:59.439Z,13.37
2022-12-11T23:41:28.885Z,12.87
2022-12-11T23:43:56.880Z,13.07
2022-12-11T23:46:28.953Z,14.53
2022-12-11T23:48:57.747Z,14.47
2022-12-11T23:51:26.876Z,14.23
2022-12-11T23:53:55.467Z,13.80
2022-12-11T23:56:26.517Z,15.47
2022-12-11T23:58:57.051Z,15.17
